Time;durP1;ratioP1;P1;durP2;ratioP2;P2;SDS_P1;SDS_P2;PMS_P1;PMS_P2;Temp;Humidity;BMP_temperature;BMP_pressure;BME280_temperature;BME280_humidity;BME280_pressure;Samples;Min_cycle;Max_cycle;Signal;HPM_P1;HPM_P2
2022/08/30 00:02:27;;;;;;;14.68;10.65;;;;;;;20.47;100.00;99536.62;1724442;82;21050;-69
2022/08/30 00:04:54;;;;;;;18.73;12.25;;;;;;;20.49;100.00;99531.54;1730587;82;21145;-68
2022/08/30 00:07:20;;;;;;;15.35;11.22;;;;;;;20.45;100.00;99534.75;1728133;82;21584;-69
2022/08/30 00:09:47;;;;;;;16.17;11.70;;;;;;;20.36;100.00;99536.24;1722936;82;21640;-68
2022/08/30 00:12:14;;;;;;;13.55;10.95;;;;;;;20.32;100.00;99533.92;1739503;82;21003;-69
2022/08/30 00:14:40;;;;;;;13.55;10.78;;;;;;;20.31;100.00;99537.26;1733274;82;21097;-69
2022/08/30 00:17:07;;;;;;;14.93;10.70;;;;;;;20.34;100.00;99538.52;1743802;82;21617;-69
2022/08/30 00:19:33;;;;;;;14.30;11.22;;;;;;;20.37;100.00;99541.20;1735084;82;21027;-69
2022/08/30 00:22:00;;;;;;;16.27;10.88;;;;;;;20.39;100.00;99541.08;1727521;81;21006;-68
2022/08/30 00:24:26;;;;;;;16.57;10.78;;;;;;;20.38;100.00;99543.61;1741933;81;21055;-68
2022/08/30 00:26:53;;;;;;;16.27;11.03;;;;;;;20.40;100.00;99537.18;1732368;82;21559;-68
2022/08/30 00:29:20;;;;;;;13.85;10.10;;;;;;;20.43;100.00;99539.26;1718713;82;21059;-68
2022/08/30 00:31:46;;;;;;;13.18;10.25;;;;;;;20.45;100.00;99531.41;1725907;82;21055;-68
2022/08/30 00:34:13;;;;;;;13.40;10.65;;;;;;;20.47;100.00;99540.19;1727962;82;22109;-68
2022/08/30 00:36:39;;;;;;;16.57;11.55;;;;;;;20.48;100.00;99540.97;1717248;82;21084;-69
2022/08/30 00:39:05;;;;;;;12.53;10.35;;;;;;;20.44;100.00;99541.45;1718459;82;21055;-68
2022/08/30 00:41:32;;;;;;;14.85;10.93;;;;;;;20.43;100.00;99537.06;1730640;82;21126;-68
2022/08/30 00:43:58;;;;;;;15.45;10.72;;;;;;;20.45;100.00;99538.90;1723385;82;21496;-68
2022/08/30 00:46:24;;;;;;;15.18;10.53;;;;;;;20.45;100.00;99541.09;1707532;82;21656;-68
2022/08/30 00:48:51;;;;;;;15.93;11.60;;;;;;;20.46;100.00;99543.29;1720113;82;21047;-68
2022/08/30 00:51:18;;;;;;;17.32;11.30;;;;;;;20.44;100.00;99547.77;1714012;82;21055;-69
2022/08/30 00:53:53;;;;;;;15.30;10.63;;;;;;;20.40;100.00;99547.42;1715216;82;21594;-68
2022/08/30 00:56:20;;;;;;;14.33;11.28;;;;;;;20.34;100.00;99546.81;1712707;82;21396;-69
2022/08/30 00:58:50;;;;;;;15.80;10.95;;;;;;;20.30;100.00;99543.92;1709301;82;21008;-68
2022/08/30 01:01:17;;;;;;;14.05;11.50;;;;;;;20.29;100.00;99547.86;1725739;82;21133;-68
2022/08/30 01:03:44;;;;;;;14.28;11.55;;;;;;;20.27;100.00;99550.67;1725869;82;21020;-68
2022/08/30 01:06:14;;;;;;;15.15;12.45;;;;;;;20.20;100.00;99554.00;1713392;82;21337;-68
2022/08/30 01:08:42;;;;;;;14.93;11.60;;;;;;;20.11;100.00;99548.33;1726451;82;21011;-69
2022/08/30 01:11:09;;;;;;;15.55;11.50;;;;;;;20.03;100.00;99553.34;1717124;82;21086;-68
2022/08/30 01:13:35;;;;;;;17.02;12.10;;;;;;;20.01;100.00;99556.47;1725214;82;21012;-68
2022/08/30 01:16:04;;;;;;;13.78;11.08;;;;;;;19.99;100.00;99564.84;1722734;82;21613;-67
2022/08/30 01:18:31;;;;;;;13.18;10.70;;;;;;;19.97;100.00;99557.47;1683562;82;21031;-68
2022/08/30 01:21:07;;;;;;;13.95;11.22;;;;;;;19.94;100.00;99556.20;1717734;82;21098;-68
2022/08/30 01:23:36;;;;;;;15.25;11.18;;;;;;;19.87;100.00;99552.58;1714140;82;21062;-69
2022/08/30 01:26:04;;;;;;;15.43;12.10;;;;;;;19.79;100.00;99560.95;1736964;82;21592;-69
2022/08/30 01:28:31;;;;;;;15.43;11.78;;;;;;;19.72;100.00;99554.59;1724026;82;21074;-69
2022/08/30 01:30:58;;;;;;;14.45;11.05;;;;;;;19.68;100.00;99554.20;1706909;82;21113;-68
2022/08/30 01:33:24;;;;;;;13.95;11.43;;;;;;;19.67;100.00;99555.34;1724883;82;21042;-69
2022/08/30 01:35:55;;;;;;;15.03;11.08;;;;;;;19.69;100.00;99551.13;1723511;82;21604;-68
2022/08/30 01:38:30;;;;;;;16.05;11.38;;;;;;;19.69;100.00;99545.59;1739786;82;21094;-68
2022/08/30 01:40:59;;;;;;;16.12;11.08;;;;;;;19.71;100.00;99549.38;1727593;82;21043;-68
2022/08/30 01:43:26;;;;;;;15.20;11.35;;;;;;;19.71;100.00;99555.72;1739176;82;20928;-68
2022/08/30 01:45:52;;;;;;;15.40;11.85;;;;;;;19.71;100.00;99554.34;1750069;82;21062;-68
2022/08/30 01:48:20;;;;;;;15.63;11.53;;;;;;;19.71;100.00;99549.38;1726964;82;20986;-68
2022/08/30 01:50:47;;;;;;;14.33;11.70;;;;;;;19.69;100.00;99552.50;1728143;82;21078;-68
2022/08/30 01:53:13;;;;;;;17.10;12.00;;;;;;;19.63;100.00;99562.67;1728279;82;21011;-68
2022/08/30 01:55:40;;;;;;;15.15;11.75;;;;;;;19.61;100.00;99563.03;1722821;82;21053;-68
2022/08/30 01:58:06;;;;;;;14.63;11.40;;;;;;;19.60;100.00;99566.11;1696745;82;21018;-68
2022/08/30 02:00:33;;;;;;;14.87;11.35;;;;;;;19.59;100.00;99566.68;1724102;82;21078;-68
2022/08/30 02:02:59;;;;;;;14.05;11.70;;;;;;;19.60;100.00;99565.55;1736920;82;21573;-68
2022/08/30 02:05:26;;;;;;;13.62;11.15;;;;;;;19.58;100.00;99559.56;1721603;82;22284;-68
2022/08/30 02:07:52;;;;;;;13.88;11.18;;;;;;;19.57;100.00;99555.74;1726016;82;21314;-69
2022/08/30 02:10:19;;;;;;;14.28;11.38;;;;;;;19.56;100.00;99561.02;1733361;81;21153;-69
2022/08/30 02:12:46;;;;;;;12.98;10.82;;;;;;;19.52;100.00;99568.38;1744062;82;21003;-69
2022/08/30 02:15:12;;;;;;;13.00;11.60;;;;;;;19.47;100.00;99567.99;1744583;82;21733;-69
2022/08/30 02:17:41;;;;;;;16.25;12.20;;;;;;;19.47;100.00;99566.61;1691880;84;21061;-69
2022/08/30 02:20:09;;;;;;;14.28;11.55;;;;;;;19.45;100.00;99564.73;1741231;82;21090;-69
2022/08/30 02:22:35;;;;;;;16.32;12.05;;;;;;;19.41;100.00;99562.97;1746247;82;21462;-69
2022/08/30 02:25:05;;;;;;;12.70;11.40;;;;;;;19.36;100.00;99572.25;1715065;82;21092;-69
2022/08/30 02:27:31;;;;;;;16.70;11.83;;;;;;;19.35;100.00;99568.67;1718833;82;21502;-69
2022/08/30 02:29:58;;;;;;;15.53;12.20;;;;;;;19.34;100.00;99569.81;1724892;82;21091;-69
2022/08/30 02:32:24;;;;;;;15.53;12.43;;;;;;;19.32;100.00;99569.91;1721690;82;21027;-68
2022/08/30 02:34:50;;;;;;;13.95;12.28;;;;;;;19.31;100.00;99573.23;1723927;82;21023;-69
2022/08/30 02:37:17;;;;;;;16.60;12.13;;;;;;;19.27;100.00;99581.16;1727023;82;21463;-69
2022/08/30 02:39:43;;;;;;;14.18;12.65;;;;;;;19.23;100.00;99583.78;1722580;82;21053;-69
2022/08/30 02:42:10;;;;;;;15.98;12.55;;;;;;;19.13;100.00;99586.88;1737806;82;21424;-70
2022/08/30 02:44:36;;;;;;;18.92;13.75;;;;;;;19.06;100.00;99594.08;1723513;82;21054;-69
2022/08/30 02:47:03;;;;;;;15.95;12.70;;;;;;;19.02;100.00;99597.26;1721393;82;22160;-69
2022/08/30 02:49:30;;;;;;;18.00;13.00;;;;;;;18.99;100.00;99597.33;1732904;82;21082;-70
2022/08/30 02:51:56;;;;;;;14.30;12.78;;;;;;;18.96;100.00;99598.56;1740032;82;21051;-69
2022/08/30 02:54:23;;;;;;;15.95;12.55;;;;;;;18.95;100.00;99596.40;1736960;82;21003;-69
2022/08/30 02:56:49;;;;;;;16.82;13.30;;;;;;;18.97;100.00;99601.00;1730845;82;21110;-70
2022/08/30 02:59:16;;;;;;;16.37;12.73;;;;;;;18.96;100.00;99604.89;1732878;82;21004;-70
2022/08/30 03:01:43;;;;;;;15.68;12.88;;;;;;;18.96;100.00;99601.31;1708809;82;21064;-68
2022/08/30 03:04:09;;;;;;;16.42;12.85;;;;;;;18.98;100.00;99603.19;1716331;82;21411;-68
2022/08/30 03:06:36;;;;;;;15.68;13.35;;;;;;;19.00;100.00;99606.42;1721496;82;21091;-69
2022/08/30 03:09:02;;;;;;;18.48;14.20;;;;;;;19.03;100.00;99614.84;1717034;82;21592;-69
2022/08/30 03:11:29;;;;;;;16.07;13.53;;;;;;;19.08;100.00;99616.62;1733215;82;21059;-68
2022/08/30 03:13:56;;;;;;;15.72;13.30;;;;;;;19.12;100.00;99620.34;1720694;82;20991;-68
2022/08/30 03:16:22;;;;;;;16.27;13.50;;;;;;;19.14;100.00;99616.67;1731657;82;21134;-68
2022/08/30 03:18:49;;;;;;;16.07;14.35;;;;;;;19.18;100.00;99611.55;1736795;82;21518;-68
2022/08/30 03:21:15;;;;;;;15.85;13.85;;;;;;;19.19;100.00;99613.73;1721507;82;21125;-70
2022/08/30 03:23:41;;;;;;;14.35;12.65;;;;;;;19.19;100.00;99616.50;1730082;82;20990;-69
2022/08/30 03:26:11;;;;;;;13.00;11.40;;;;;;;19.22;100.00;99626.30;1730829;82;21089;-69
2022/08/30 03:28:37;;;;;;;14.83;12.25;;;;;;;19.26;100.00;99620.92;1730928;82;21048;-69
2022/08/30 03:31:04;;;;;;;15.05;12.85;;;;;;;19.31;100.00;99620.16;1723118;82;21070;-68
2022/08/30 03:33:31;;;;;;;14.30;12.75;;;;;;;19.33;100.00;99627.55;1728312;82;20986;-68
2022/08/30 03:35:57;;;;;;;14.87;11.95;;;;;;;19.33;100.00;99625.36;1718540;82;21036;-70
2022/08/30 03:38:24;;;;;;;13.55;12.25;;;;;;;19.35;100.00;99636.86;1715999;82;21040;-69
2022/08/30 03:40:50;;;;;;;13.28;11.63;;;;;;;19.34;100.00;99632.51;1715667;82;21429;-71
2022/08/30 03:43:16;;;;;;;13.35;11.93;;;;;;;19.35;100.00;99639.06;1727255;82;21542;-70
2022/08/30 03:45:43;;;;;;;14.68;11.50;;;;;;;19.39;100.00;99635.06;1730278;82;21067;-69
2022/08/30 03:48:10;;;;;;;13.22;11.93;;;;;;;19.44;100.00;99643.77;1706665;82;21571;-69
2022/08/30 03:50:36;;;;;;;11.93;10.30;;;;;;;19.50;100.00;99643.81;1728215;82;21091;-69
2022/08/30 03:53:03;;;;;;;12.90;10.28;;;;;;;19.57;100.00;99655.14;1720674;82;21055;-68
2022/08/30 03:55:30;;;;;;;12.05;10.75;;;;;;;19.62;100.00;99658.53;1717004;82;21915;-68
2022/08/30 03:57:56;;;;;;;12.15;10.03;;;;;;;19.62;100.00;99654.39;1731299;82;21015;-69
2022/08/30 04:00:23;;;;;;;12.13;10.13;;;;;;;19.61;100.00;99667.95;1725415;82;21079;-69
2022/08/30 04:02:49;;;;;;;10.45;9.35;;;;;;;19.65;100.00;99662.58;1722517;82;22156;-69
2022/08/30 04:05:16;;;;;;;10.88;9.33;;;;;;;19.70;100.00;99661.80;1719484;82;21142;-71
2022/08/30 04:07:43;;;;;;;10.20;8.43;;;;;;;19.73;100.00;99663.89;1710089;82;21008;-69
2022/08/30 04:10:10;;;;;;;10.78;9.18;;;;;;;19.76;100.00;99659.10;1718607;82;21035;-70
2022/08/30 04:12:37;;;;;;;10.95;9.73;;;;;;;19.78;100.00;99664.27;1723436;82;21035;-71
2022/08/30 04:15:05;;;;;;;10.03;9.03;;;;;;;19.77;100.00;99664.03;1720542;82;21122;-70
2022/08/30 04:17:31;;;;;;;11.50;9.33;;;;;;;19.78;100.00;99660.13;1715167;82;21051;-70
2022/08/30 04:19:58;;;;;;;9.80;8.75;;;;;;;19.82;100.00;99655.56;1729355;82;21081;-71
2022/08/30 04:22:24;;;;;;;9.20;8.15;;;;;;;19.87;100.00;99665.05;1719341;82;20986;-70
2022/08/30 04:24:50;;;;;;;9.60;8.20;;;;;;;19.94;100.00;99661.75;1716807;82;20980;-71
2022/08/30 04:27:19;;;;;;;10.78;8.23;;;;;;;19.99;100.00;99662.92;1748834;82;21545;-69
2022/08/30 04:29:46;;;;;;;10.85;7.80;;;;;;;19.99;100.00;99658.20;1735925;82;21077;-71
2022/08/30 04:32:13;;;;;;;10.15;7.70;;;;;;;20.03;100.00;99655.58;1746713;82;21011;-70
2022/08/30 04:34:39;;;;;;;7.97;7.12;;;;;;;20.08;100.00;99665.87;1744732;82;21035;-70
2022/08/30 04:37:06;;;;;;;8.90;7.70;;;;;;;20.14;100.00;99656.80;1735086;82;20983;-70
2022/08/30 04:39:34;;;;;;;8.78;7.35;;;;;;;20.13;100.00;99657.37;1747676;82;21015;-69
2022/08/30 04:42:02;;;;;;;8.48;7.20;;;;;;;20.09;100.00;99653.66;1739597;82;21007;-69
2022/08/30 04:44:28;;;;;;;8.93;7.22;;;;;;;20.14;100.00;99656.23;1737126;82;21003;-70
2022/08/30 04:46:55;;;;;;;8.93;7.00;;;;;;;20.23;100.00;99651.43;1732490;82;21078;-70
2022/08/30 04:49:21;;;;;;;9.43;7.37;;;;;;;20.30;100.00;99650.34;1731434;82;21496;-69
2022/08/30 04:51:48;;;;;;;7.87;7.10;;;;;;;20.30;100.00;99653.68;1744042;82;21066;-70
2022/08/30 04:54:14;;;;;;;9.50;6.95;;;;;;;20.28;100.00;99652.66;1732847;82;21349;-70
2022/08/30 04:56:42;;;;;;;8.50;6.72;;;;;;;20.32;100.00;99648.07;1733468;82;21078;-70
2022/08/30 04:59:08;;;;;;;9.00;6.90;;;;;;;20.40;100.00;99653.30;1737695;82;21862;-72
2022/08/30 05:01:36;;;;;;;6.90;6.20;;;;;;;20.44;100.00;99653.42;1737516;82;21682;-71
2022/08/30 05:04:03;;;;;;;8.78;6.00;;;;;;;20.48;100.00;99657.10;1740388;82;21070;-71
2022/08/30 05:06:30;;;;;;;9.60;7.17;;;;;;;20.58;100.00;99656.71;1728195;82;21094;-70
2022/08/30 05:08:57;;;;;;;6.67;5.97;;;;;;;20.65;100.00;99650.05;1720920;82;21557;-69
2022/08/30 05:11:24;;;;;;;7.12;5.87;;;;;;;20.69;100.00;99655.14;1720562;83;21078;-68
2022/08/30 05:13:50;;;;;;;6.92;5.87;;;;;;;20.81;100.00;99649.63;1728686;82;20991;-71
2022/08/30 05:16:18;;;;;;;8.83;6.50;;;;;;;21.01;100.00;99650.13;1726294;82;21065;-71
2022/08/30 05:18:46;;;;;;;8.25;6.30;;;;;;;21.23;100.00;99651.70;1737599;82;20990;-71
2022/08/30 05:21:19;;;;;;;7.03;6.08;;;;;;;21.46;100.00;99641.00;1672600;84;21105;-71
2022/08/30 05:23:45;;;;;;;7.05;6.35;;;;;;;21.65;100.00;99640.63;1733386;82;21043;-71
2022/08/30 05:26:18;;;;;;;6.25;5.50;;;;;;;21.88;100.00;99641.55;1722197;83;21620;-72
2022/08/30 05:28:45;;;;;;;6.40;5.33;;;;;;;22.15;100.00;99633.30;1721723;83;20991;-72
2022/08/30 05:31:28;;;;;;;6.72;5.58;;;;;;;22.79;100.00;99632.38;1705026;82;21576;-72
2022/08/30 05:33:55;;;;;;;7.55;5.10;;;;;;;22.79;100.00;99632.38;1749630;82;21023;-71
2022/08/30 05:36:23;;;;;;;6.42;5.53;;;;;;;22.92;100.00;99628.36;1750553;82;21576;-71
2022/08/30 05:38:50;;;;;;;7.50;5.08;;;;;;;23.09;100.00;99618.91;1750732;82;20973;-72
2022/08/30 05:41:19;;;;;;;5.90;4.70;;;;;;;23.45;100.00;99615.08;1751437;82;21055;-71
2022/08/30 05:43:45;;;;;;;7.62;4.50;;;;;;;23.45;100.00;99615.08;1751511;82;21031;-71
2022/08/30 05:46:13;;;;;;;5.55;4.30;;;;;;;23.54;100.00;99616.48;1750739;81;21512;-71
2022/08/30 05:48:39;;;;;;;5.65;4.67;;;;;;;23.61;100.00;99613.88;1750538;81;20956;-70
2022/08/30 05:51:12;;;;;;;5.10;4.05;;;;;;;23.71;100.00;99614.70;1721043;83;21147;-71
2022/08/30 05:53:39;;;;;;;5.58;4.03;;;;;;;23.80;100.00;99618.69;1734927;82;20999;-71
2022/08/30 05:56:09;;;;;;;5.87;3.92;;;;;;;23.99;100.00;99622.06;1744925;82;21094;-71
2022/08/30 05:58:36;;;;;;;4.17;3.77;;;;;;;24.25;100.00;99613.94;1740560;80;21070;-70
2022/08/30 06:01:02;;;;;;;5.20;3.60;;;;;;;24.43;100.00;99616.50;1739120;80;21027;-71
2022/08/30 06:03:31;;;;;;;5.30;4.78;;;;;;;24.54;100.00;99611.95;1736141;80;21477;-71
2022/08/30 06:05:59;;;;;;;4.78;3.67;;;;;;;24.57;100.00;99611.22;1730957;80;21174;-70
2022/08/30 06:08:26;;;;;;;4.97;3.80;;;;;;;24.66;100.00;99603.42;1726274;80;21628;-71
2022/08/30 06:10:52;;;;;;;6.22;3.50;;;;;;;24.76;100.00;99609.00;1729367;80;22431;-71
2022/08/30 06:13:21;;;;;;;4.10;3.02;;;;;;;24.67;100.00;99606.44;1700181;82;21058;-72
2022/08/30 06:15:48;;;;;;;8.75;6.33;;;;;;;24.64;100.00;99604.39;1750653;82;21078;-71
2022/08/30 06:18:14;;;;;;;5.03;3.62;;;;;;;24.66;100.00;99614.56;1728128;80;21015;-75
2022/08/30 06:20:42;;;;;;;4.80;3.45;;;;;;;24.72;100.00;99611.72;1748130;82;21117;-72
2022/08/30 06:23:09;;;;;;;5.10;3.15;;;;;;;24.81;100.00;99605.89;1738681;82;20983;-75
2022/08/30 06:25:38;;;;;;;5.70;3.37;;;;;;;25.07;100.00;99607.99;1748638;81;21055;-72
2022/08/30 06:28:06;;;;;;;5.55;3.22;;;;;;;25.34;100.00;99608.25;1720781;82;20988;-72
2022/08/30 06:30:33;;;;;;;6.15;3.30;;;;;;;25.49;100.00;99609.28;1726300;82;21071;-73
2022/08/30 06:32:59;;;;;;;3.52;2.60;;;;;;;25.64;100.00;99606.39;1716988;82;22232;-72
2022/08/30 06:35:26;;;;;;;4.50;2.92;;;;;;;25.54;100.00;99601.42;1735186;82;21688;-70
2022/08/30 06:37:54;;;;;;;5.03;2.62;;;;;;;25.41;100.00;99600.59;1714192;82;21011;-75
2022/08/30 06:40:21;;;;;;;4.85;2.50;;;;;;;25.51;100.00;99609.14;1729997;82;21154;-72
2022/08/30 06:42:48;;;;;;;6.62;2.80;;;;;;;25.70;100.00;99604.87;1697066;84;21478;-70
2022/08/30 06:45:16;;;;;;;5.17;2.70;;;;;;;25.88;100.00;99605.72;1696987;84;21463;-71
2022/08/30 06:47:43;;;;;;;5.15;2.80;;;;;;;25.96;100.00;99604.05;1687311;84;22307;-69
2022/08/30 06:50:10;;;;;;;8.30;2.70;;;;;;;25.99;100.00;99599.11;1675244;84;21102;-72
2022/08/30 06:52:41;;;;;;;7.20;2.80;;;;;;;25.98;100.00;99603.08;1683648;84;21557;-71
2022/08/30 06:55:10;;;;;;;4.10;2.70;;;;;;;25.86;100.00;99606.11;1672887;84;21186;-71
2022/08/30 06:57:36;;;;;;;4.90;2.50;;;;;;;25.81;100.00;99608.41;1681190;84;21142;-73
2022/08/30 07:00:06;;;;;;;6.08;2.70;;;;;;;25.88;100.00;99603.73;1682054;83;21596;-72
2022/08/30 07:02:33;;;;;;;3.83;2.00;;;;;;;25.93;100.00;99614.58;1712219;82;21020;-71
2022/08/30 07:05:01;;;;;;;4.55;2.40;;;;;;;25.95;100.00;99616.38;1715548;82;21075;-71
2022/08/30 07:07:27;;;;;;;5.85;2.42;;;;;;;25.97;100.00;99606.27;1715111;82;21590;-71
2022/08/30 07:09:54;;;;;;;7.28;2.83;;;;;;;25.76;100.00;99619.28;1711525;82;21086;-72
2022/08/30 07:12:21;;;;;;;4.92;2.37;;;;;;;25.84;100.00;99621.00;1730494;82;21091;-70
2022/08/30 07:14:47;;;;;;;3.62;2.40;;;;;;;25.96;100.00;99623.58;1722697;82;21052;-69
2022/08/30 07:19:59;;;;;;;5.17;2.42;;;;;;;25.94;100.00;99625.92;1723186;82;21114;-68
2022/08/30 07:22:25;;;;;;;4.58;2.65;;;;;;;26.18;100.00;99622.70;1725481;82;22284;-70
2022/08/30 07:24:52;;;;;;;5.15;2.50;;;;;;;26.30;100.00;99619.45;1707854;84;21095;-66
2022/08/30 07:27:19;;;;;;;6.37;2.45;;;;;;;26.30;100.00;99620.85;1722659;81;21069;-66
2022/08/30 07:29:48;;;;;;;5.92;2.47;;;;;;;26.40;100.00;99621.57;1750885;82;21083;-67
2022/08/30 07:32:15;;;;;;;6.50;2.42;;;;;;;26.48;100.00;99628.27;1748669;82;21062;-65
2022/08/30 07:34:41;;;;;;;4.53;2.40;;;;;;;26.61;100.00;99621.83;1748820;82;21557;-66
2022/08/30 07:37:07;;;;;;;3.77;2.33;;;;;;;26.65;100.00;99622.67;1748046;82;21058;-66
2022/08/30 07:39:35;;;;;;;5.80;2.10;;;;;;;26.80;100.00;99625.84;1749822;82;21070;-67
2022/08/30 07:42:01;;;;;;;3.90;2.42;;;;;;;26.83;100.00;99621.50;1748217;82;21125;-65
2022/08/30 07:44:28;;;;;;;4.85;2.37;;;;;;;26.67;100.00;99631.48;1732518;82;21102;-67
2022/08/30 07:46:55;;;;;;;4.75;2.65;;;;;;;26.46;100.00;99628.45;1727561;82;21138;-65
2022/08/30 07:49:22;;;;;;;4.08;2.27;;;;;;;26.36;100.00;99629.13;1685780;84;21061;-65
2022/08/30 07:51:48;;;;;;;4.60;2.22;;;;;;;26.43;100.00;99631.38;1736166;82;21106;-65
2022/08/30 07:54:15;;;;;;;3.83;2.37;;;;;;;26.42;100.00;99633.98;1730283;82;21109;-67
2022/08/30 07:56:41;;;;;;;5.15;2.27;;;;;;;26.24;100.00;99623.19;1743135;82;21051;-67
2022/08/30 07:59:08;;;;;;;5.05;2.55;;;;;;;26.30;100.00;99630.03;1735715;81;21564;-67
2022/08/30 08:01:34;;;;;;;9.13;2.55;;;;;;;26.37;100.00;99630.70;1726558;82;21063;-64
2022/08/30 08:04:01;;;;;;;6.28;2.58;;;;;;;26.32;100.00;99633.27;1726284;82;21521;-66
2022/08/30 08:06:28;;;;;;;5.17;2.40;;;;;;;26.29;100.00;99622.05;1724341;82;21102;-65
2022/08/30 08:08:56;;;;;;;6.70;3.12;;;;;;;26.26;100.00;99619.41;1743020;82;20935;-67
2022/08/30 08:11:26;;;;;;;6.70;3.33;;;;;;;26.23;100.00;99625.16;1743741;82;21086;-66
2022/08/30 08:13:53;;;;;;;7.12;3.17;;;;;;;26.28;100.00;99617.06;1722383;82;20963;-66
2022/08/30 08:16:20;;;;;;;5.17;2.83;;;;;;;26.34;100.00;99628.68;1739584;82;21105;-66
2022/08/30 08:18:47;;;;;;;7.15;3.00;;;;;;;26.50;100.00;99624.49;1724572;82;20968;-67
2022/08/30 08:21:13;;;;;;;6.08;2.70;;;;;;;26.65;100.00;99611.50;1733377;82;21473;-68
2022/08/30 08:23:39;;;;;;;3.65;2.52;;;;;;;26.79;100.00;99612.24;1745644;81;21928;-68
2022/08/30 08:26:06;;;;;;;8.08;2.67;;;;;;;26.80;100.00;99620.25;1740272;81;21082;-67
2022/08/30 08:28:34;;;;;;;4.25;2.25;;;;;;;26.72;98.63;99617.97;1746837;82;21054;-67
2022/08/30 08:31:01;;;;;;;4.17;2.45;;;;;;;26.70;100.00;99620.95;1734808;82;21075;-66
2022/08/30 08:33:27;;;;;;;6.92;4.50;;;;;;;26.81;100.00;99621.87;1734043;82;21478;-66
2022/08/30 08:35:54;;;;;;;5.47;3.40;;;;;;;26.89;100.00;99620.77;1701323;82;21141;-67
2022/08/30 08:38:20;;;;;;;6.85;2.75;;;;;;;27.02;100.00;99615.72;1690144;82;21101;-68
2022/08/30 08:41:09;;;;;;;16.60;4.20;;;;;;;26.99;100.00;99622.89;1744716;80;21074;-66
2022/08/30 08:43:36;;;;;;;5.55;2.85;;;;;;;26.98;100.00;99617.08;1734308;80;20995;-67
2022/08/30 08:46:25;;;;;;;4.67;2.47;;;;;;;27.10;93.09;99622.38;1750820;82;21635;-66
2022/08/30 08:48:54;;;;;;;4.62;2.33;;;;;;;27.03;92.55;99622.92;1736336;80;21082;-66
2022/08/30 08:54:18;;;;;;;4.60;2.45;;;;;;;27.05;90.94;99623.33;1736591;80;21002;-68
2022/08/30 08:56:44;;;;;;;4.15;1.98;;;;;;;27.03;90.41;99615.94;1711433;82;21081;-66
2022/08/30 08:59:11;;;;;;;4.22;2.02;;;;;;;26.89;91.71;99615.80;1741842;82;20991;-66
2022/08/30 09:01:38;;;;;;;4.58;2.33;;;;;;;26.92;92.72;99617.23;1731522;82;21580;-66
2022/08/30 09:04:19;;;;;;;4.45;2.12;;;;;;;26.80;82.56;99619.45;1736649;82;21082;-67
2022/08/30 09:06:56;;;;;;;3.80;2.42;;;;;;;26.52;87.41;99631.10;1728705;82;21186;-67
2022/08/30 09:09:31;;;;;;;6.25;2.30;;;;;;;26.48;94.33;99626.06;1732544;82;21343;-68
2022/08/30 09:12:01;;;;;;;5.92;1.92;;;;;;;26.53;88.75;99629.92;1734823;82;21281;-67
2022/08/30 09:14:36;;;;;;;2.72;1.80;;;;;;;26.55;95.03;99623.36;1709208;82;21565;-68
2022/08/30 09:17:07;;;;;;;4.12;2.17;;;;;;;26.64;95.81;99610.70;1723435;82;21054;-67
2022/08/30 09:19:40;;;;;;;5.78;3.10;;;;;;;26.60;100.00;99617.45;1740557;82;21090;-68
2022/08/30 09:22:26;;;;;;;4.40;1.90;;;;;;;26.49;98.35;99617.91;1727721;81;21094;-68
2022/08/30 09:25:04;;;;;;;4.53;2.10;;;;;;;26.46;96.39;99622.27;1733719;80;21192;-68
2022/08/30 09:27:40;;;;;;;9.48;7.42;;;;;;;26.50;98.73;99618.13;1741624;82;21070;-66
2022/08/30 09:30:24;;;;;;;3.47;2.00;;;;;;;26.54;100.00;99616.97;1744918;82;21086;-67
2022/08/30 09:32:57;;;;;;;12.75;4.78;;;;;;;26.60;92.70;99606.28;1731271;82;21003;-67
2022/08/30 09:35:35;;;;;;;7.33;3.12;;;;;;;26.42;100.00;99615.03;1736855;82;21039;-68
2022/08/30 09:38:10;;;;;;;6.10;2.70;;;;;;;26.46;100.00;99615.88;1734279;82;21563;-64
2022/08/30 09:40:50;;;;;;;3.70;2.00;;;;;;;26.53;100.00;99622.36;1731025;82;21082;-66
2022/08/30 09:43:27;;;;;;;4.45;2.12;;;;;;;26.49;100.00;99614.53;1704073;82;21164;-67
2022/08/30 09:46:06;;;;;;;4.47;2.50;;;;;;;26.30;100.00;99620.27;1748935;82;21134;-67
2022/08/30 09:48:39;;;;;;;4.15;2.65;;;;;;;26.19;100.00;99633.27;1725936;82;21581;-65
2022/08/30 09:51:23;;;;;;;6.42;3.70;;;;;;;26.09;98.55;99623.55;1737364;82;21063;-68
2022/08/30 09:54:04;;;;;;;19.27;8.95;;;;;;;26.06;96.61;99620.13;1704861;82;21059;-66
2022/08/30 09:56:56;;;;;;;5.78;2.60;;;;;;;26.07;95.76;99620.35;1735094;82;21082;-66
2022/08/30 09:59:49;;;;;;;4.80;2.20;;;;;;;26.10;98.94;99620.98;1733560;82;21039;-68
2022/08/30 10:02:41;;;;;;;5.30;2.37;;;;;;;26.04;99.51;99623.87;1736629;82;21044;-68
2022/08/30 10:05:45;;;;;;;4.90;2.10;;;;;;;25.85;100.00;99622.62;1729114;82;21094;-67
2022/08/30 10:08:26;;;;;;;4.30;2.15;;;;;;;25.68;100.00;99620.37;1689770;82;21070;-69
2022/08/30 10:11:00;;;;;;;31.33;16.87;;;;;;;25.68;100.00;99609.22;1739081;82;21663;-69
2022/08/30 10:13:55;;;;;;;8.43;2.87;;;;;;;25.74;100.00;99611.90;1734805;82;21027;-69
2022/08/30 10:16:53;;;;;;;6.65;2.52;;;;;;;25.79;100.00;99612.17;1729294;82;21094;-69
2022/08/30 10:19:46;;;;;;;6.80;4.12;;;;;;;25.83;100.00;99615.20;1741378;82;21074;-68
2022/08/30 10:22:32;;;;;;;4.70;2.60;;;;;;;25.92;100.00;99614.94;1724468;81;22311;-70
2022/08/30 10:25:12;;;;;;;7.30;4.58;;;;;;;25.98;100.00;99611.44;1734988;82;21581;-69
2022/08/30 10:27:53;;;;;;;4.67;2.40;;;;;;;26.02;100.00;99606.72;1743260;82;21062;-68
2022/08/30 10:30:20;;;;;;;6.72;2.80;;;;;;;26.06;100.00;99604.79;1750355;82;21091;-68
2022/08/30 10:33:01;;;;;;;4.95;2.60;;;;;;;25.97;100.00;99602.86;1742676;82;21059;-69
2022/08/30 10:35:31;;;;;;;16.87;9.23;;;;;;;25.95;100.00;99602.44;1750361;82;21151;-68
2022/08/30 10:38:40;;;;;;;5.08;2.27;;;;;;;25.98;100.00;99600.88;1745114;81;21104;-69
2022/08/30 10:41:41;;;;;;;3.35;1.90;;;;;;;26.04;97.57;99596.59;1745912;82;21091;-68
2022/08/30 10:44:27;;;;;;;3.33;1.60;;;;;;;26.02;96.59;99591.38;1731311;82;21538;-67
2022/08/30 10:47:14;;;;;;;4.30;1.85;;;;;;;25.99;95.60;99593.53;1678313;85;22178;-68
2022/08/30 10:49:44;;;;;;;8.55;3.77;;;;;;;25.90;100.00;99595.78;1723479;82;21074;-68
2022/08/30 10:52:40;;;;;;;4.35;2.40;;;;;;;25.94;100.00;99606.41;1746472;82;21102;-68
2022/08/30 10:55:27;;;;;;;4.08;1.98;;;;;;;26.04;100.00;99593.19;1744459;82;21091;-67
2022/08/30 10:58:00;;;;;;;10.95;4.78;;;;;;;26.08;98.48;99596.02;1744042;82;21510;-70
2022/08/30 11:01:02;;;;;;;4.15;1.95;;;;;;;26.05;100.00;99593.41;1731275;82;21931;-68
2022/08/30 11:04:00;;;;;;;2.55;1.70;;;;;;;26.07;96.01;99593.85;1738295;82;21078;-68
2022/08/30 11:06:47;;;;;;;2.37;1.65;;;;;;;26.05;95.84;99591.20;1747105;82;21073;-68
2022/08/30 11:09:36;;;;;;;4.70;1.62;;;;;;;26.08;92.12;99594.05;1750223;82;21051;-68
2022/08/30 11:12:33;;;;;;;12.58;5.80;;;;;;;26.10;88.61;99589.49;1730915;82;20968;-67
2022/08/30 11:15:06;;;;;;;16.52;7.30;;;;;;;26.11;93.01;99588.32;1730619;82;21110;-67
2022/08/30 11:18:00;;;;;;;6.83;2.00;;;;;;;26.19;94.01;99578.28;1738563;82;21135;-67
2022/08/30 11:20:45;;;;;;;5.08;2.35;;;;;;;26.29;92.58;99580.98;1750639;82;21126;-67
2022/08/30 11:23:25;;;;;;;5.00;1.52;;;;;;;26.35;94.14;99586.45;1746916;82;21065;-68
2022/08/30 11:26:10;;;;;;;3.85;1.90;;;;;;;26.38;88.05;99569.53;1738263;82;21061;-68
2022/08/30 11:28:42;;;;;;;4.42;2.00;;;;;;;26.43;97.82;99570.60;1733270;82;21624;-66
2022/08/30 11:31:21;;;;;;;3.22;1.90;;;;;;;26.51;99.51;99562.50;1736681;82;21589;-68
2022/08/30 11:33:50;;;;;;;6.10;1.90;;;;;;;26.57;90.63;99570.14;1667468;82;21074;-69
2022/08/30 11:36:37;;;;;;;2.80;1.40;;;;;;;26.52;87.53;99572.48;1715391;82;21051;-67
2022/08/30 11:42:33;;;;;;;6.17;4.75;;;;;;;26.49;87.65;99561.50;1765600;79;22917;-67
2022/08/30 11:45:26;;;;;;;4.45;2.33;;;;;;;26.33;84.29;99554.52;1744264;81;21101;-66